sensor_id;sensor_type;location;lat;lon;timestamp;pressure;altitude;pressure_sealevel;temperature;humidity
29371;BME280;16357;52.188;7.838;2023-06-10T00:01:38;100859.13;;;23.13;37.82
29371;BME280;16357;52.188;7.838;2023-06-10T00:04:04;100848.66;;;23.10;37.99
29371;BME280;16357;52.188;7.838;2023-06-10T00:06:31;100852.94;;;23.06;37.91
29371;BME280;16357;52.188;7.838;2023-06-10T00:09:04;100854.72;;;23.00;38.05
29371;BME280;16357;52.188;7.838;2023-06-10T00:11:32;100855.38;;;22.96;38.05
29371;BME280;16357;52.188;7.838;2023-06-10T00:13:59;100856.09;;;22.91;38.26
29371;BME280;16357;52.188;7.838;2023-06-10T00:16:26;100853.00;;;22.88;38.56
29371;BME280;16357;52.188;7.838;2023-06-10T00:18:53;100864.66;;;22.83;38.63
29371;BME280;16357;52.188;7.838;2023-06-10T00:21:22;100861.53;;;22.79;38.66
29371;BME280;16357;52.188;7.838;2023-06-10T00:23:48;100859.53;;;22.75;38.83
29371;BME280;16357;52.188;7.838;2023-06-10T00:26:15;100850.94;;;22.71;39.07
29371;BME280;16357;52.188;7.838;2023-06-10T00:28:42;100844.28;;;22.67;39.05
29371;BME280;16357;52.188;7.838;2023-06-10T00:31:11;100848.53;;;22.63;39.27
29371;BME280;16357;52.188;7.838;2023-06-10T00:33:37;100855.53;;;22.59;39.24
29371;BME280;16357;52.188;7.838;2023-06-10T00:36:04;100862.56;;;22.55;39.79
29371;BME280;16357;52.188;7.838;2023-06-10T00:38:30;100856.72;;;22.51;39.75
29371;BME280;16357;52.188;7.838;2023-06-10T00:40:58;100860.97;;;22.47;39.79
29371;BME280;16357;52.188;7.838;2023-06-10T00:43:24;100855.16;;;22.44;40.01
29371;BME280;16357;52.188;7.838;2023-06-10T00:45:51;100854.75;;;22.40;40.30
29371;BME280;16357;52.188;7.838;2023-06-10T00:48:18;100868.06;;;22.37;40.24
29371;BME280;16357;52.188;7.838;2023-06-10T00:50:46;100871.28;;;22.33;40.34
29371;BME280;16357;52.188;7.838;2023-06-10T00:53:13;100865.41;;;22.30;40.58
29371;BME280;16357;52.188;7.838;2023-06-10T00:55:41;100872.44;;;22.26;40.35
29371;BME280;16357;52.188;7.838;2023-06-10T00:58:07;100863.88;;;22.22;40.92
29371;BME280;16357;52.188;7.838;2023-06-10T01:00:34;100868.72;;;22.20;40.97
29371;BME280;16357;52.188;7.838;2023-06-10T01:03:01;100854.06;;;22.14;41.08
29371;BME280;16357;52.188;7.838;2023-06-10T01:05:27;100858.06;;;22.12;40.94
29371;BME280;16357;52.188;7.838;2023-06-10T01:10:33;100863.63;;;22.05;41.20
29371;BME280;16357;52.188;7.838;2023-06-10T01:13:03;100862.16;;;22.03;41.45
29371;BME280;16357;52.188;7.838;2023-06-10T01:15:31;100863.72;;;21.99;41.56
29371;BME280;16357;52.188;7.838;2023-06-10T01:18:02;100859.75;;;21.95;42.06
29371;BME280;16357;52.188;7.838;2023-06-10T01:20:32;100867.59;;;21.91;41.65
29371;BME280;16357;52.188;7.838;2023-06-10T01:23:00;100868.00;;;21.88;42.05
29371;BME280;16357;52.188;7.838;2023-06-10T01:25:28;100878.56;;;21.84;41.89
29371;BME280;16357;52.188;7.838;2023-06-10T01:28:05;100880.69;;;21.82;41.74
29371;BME280;16357;52.188;7.838;2023-06-10T01:30:51;100881.16;;;21.79;41.65
29371;BME280;16357;52.188;7.838;2023-06-10T01:33:27;100891.47;;;21.77;41.96
29371;BME280;16357;52.188;7.838;2023-06-10T01:35:58;100895.47;;;21.75;42.40
29371;BME280;16357;52.188;7.838;2023-06-10T01:38:31;100890.47;;;21.72;42.29
29371;BME280;16357;52.188;7.838;2023-06-10T01:40:59;100897.47;;;21.67;42.47
29371;BME280;16357;52.188;7.838;2023-06-10T01:43:26;100892.69;;;21.63;42.62
29371;BME280;16357;52.188;7.838;2023-06-10T01:45:53;100898.59;;;21.60;42.69
29371;BME280;16357;52.188;7.838;2023-06-10T01:48:19;100901.16;;;21.55;42.92
29371;BME280;16357;52.188;7.838;2023-06-10T01:50:46;100901.63;;;21.52;43.21
29371;BME280;16357;52.188;7.838;2023-06-10T01:53:12;100885.28;;;21.45;43.28
29371;BME280;16357;52.188;7.838;2023-06-10T01:55:38;100895.22;;;21.39;43.35
29371;BME280;16357;52.188;7.838;2023-06-10T01:58:05;100895.63;;;21.36;43.77
29371;BME280;16357;52.188;7.838;2023-06-10T02:00:31;100896.28;;;21.32;43.29
29371;BME280;16357;52.188;7.838;2023-06-10T02:02:58;100897.81;;;21.27;43.78
29371;BME280;16357;52.188;7.838;2023-06-10T02:05:25;100896.59;;;21.23;43.88
29371;BME280;16357;52.188;7.838;2023-06-10T02:07:51;100893.47;;;21.20;43.88
29371;BME280;16357;52.188;7.838;2023-06-10T02:10:17;100905.66;;;21.17;43.86
29371;BME280;16357;52.188;7.838;2023-06-10T02:12:44;100902.53;;;21.14;43.92
29371;BME280;16357;52.188;7.838;2023-06-10T02:15:10;100904.03;;;21.10;44.12
29371;BME280;16357;52.188;7.838;2023-06-10T02:17:37;100904.50;;;21.07;43.93
29371;BME280;16357;52.188;7.838;2023-06-10T02:20:05;100900.53;;;21.02;44.21
29371;BME280;16357;52.188;7.838;2023-06-10T02:22:33;100909.16;;;20.99;44.26
29371;BME280;16357;52.188;7.838;2023-06-10T02:24:59;100907.09;;;20.95;44.26
29371;BME280;16357;52.188;7.838;2023-06-10T02:27:26;100905.00;;;20.90;44.28
29371;BME280;16357;52.188;7.838;2023-06-10T02:29:53;100906.28;;;20.88;44.50
29371;BME280;16357;52.188;7.838;2023-06-10T02:32:19;100908.63;;;20.84;44.60
29371;BME280;16357;52.188;7.838;2023-06-10T02:34:46;100912.63;;;20.81;44.12
29371;BME280;16357;52.188;7.838;2023-06-10T02:37:13;100914.97;;;20.78;44.41
29371;BME280;16357;52.188;7.838;2023-06-10T02:39:40;100914.56;;;20.74;44.65
29371;BME280;16357;52.188;7.838;2023-06-10T02:42:07;100906.00;;;20.71;44.75
29371;BME280;16357;52.188;7.838;2023-06-10T02:44:33;100913.78;;;20.67;44.83
29371;BME280;16357;52.188;7.838;2023-06-10T02:47:00;100911.28;;;20.66;44.71
29371;BME280;16357;52.188;7.838;2023-06-10T02:49:26;100905.63;;;20.60;44.43
29371;BME280;16357;52.188;7.838;2023-06-10T02:51:54;100903.16;;;20.59;44.75
29371;BME280;16357;52.188;7.838;2023-06-10T02:54:20;100903.56;;;20.56;44.92
29371;BME280;16357;52.188;7.838;2023-06-10T02:56:47;100907.53;;;20.53;45.33
29371;BME280;16357;52.188;7.838;2023-06-10T02:59:14;100906.94;;;20.51;45.00
29371;BME280;16357;52.188;7.838;2023-06-10T03:01:41;100898.13;;;20.49;45.05
29371;BME280;16357;52.188;7.838;2023-06-10T03:04:08;100904.84;;;20.47;45.08
29371;BME280;16357;52.188;7.838;2023-06-10T03:06:35;100909.88;;;20.43;45.43
29371;BME280;16357;52.188;7.838;2023-06-10T03:09:02;100902.13;;;20.40;45.26
29371;BME280;16357;52.188;7.838;2023-06-10T03:11:33;100903.66;;;20.36;45.34
29371;BME280;16357;52.188;7.838;2023-06-10T03:14:00;100899.91;;;20.30;45.77
29371;BME280;16357;52.188;7.838;2023-06-10T03:16:26;100898.03;;;20.24;45.63
29371;BME280;16357;52.188;7.838;2023-06-10T03:18:53;100898.06;;;20.17;45.63
29371;BME280;16357;52.188;7.838;2023-06-10T03:21:20;100895.34;;;20.11;45.71
29371;BME280;16357;52.188;7.838;2023-06-10T03:23:46;100896.22;;;20.05;45.80
29371;BME280;16357;52.188;7.838;2023-06-10T03:26:16;100896.03;;;20.00;45.96
29371;BME280;16357;52.188;7.838;2023-06-10T03:28:42;100899.41;;;19.95;46.19
29371;BME280;16357;52.188;7.838;2023-06-10T03:31:09;100895.66;;;19.89;45.86
29371;BME280;16357;52.188;7.838;2023-06-10T03:33:35;100896.28;;;19.85;46.13
29371;BME280;16357;52.188;7.838;2023-06-10T03:36:02;100905.94;;;19.81;46.23
29371;BME280;16357;52.188;7.838;2023-06-10T03:38:29;100910.13;;;19.77;46.58
29371;BME280;16357;52.188;7.838;2023-06-10T03:40:55;100909.94;;;19.71;46.55
29371;BME280;16357;52.188;7.838;2023-06-10T03:43:21;100910.34;;;19.68;46.56
29371;BME280;16357;52.188;7.838;2023-06-10T03:45:48;100902.78;;;19.64;46.47
29371;BME280;16357;52.188;7.838;2023-06-10T03:48:15;100911.38;;;19.61;46.64
29371;BME280;16357;52.188;7.838;2023-06-10T03:50:42;100915.59;;;19.57;46.50
29371;BME280;16357;52.188;7.838;2023-06-10T03:53:09;100914.31;;;19.52;46.88
29371;BME280;16357;52.188;7.838;2023-06-10T03:55:36;100918.31;;;19.50;46.72
29371;BME280;16357;52.188;7.838;2023-06-10T03:58:02;100916.22;;;19.45;46.68
29371;BME280;16357;52.188;7.838;2023-06-10T04:00:28;100926.50;;;19.43;47.00
29371;BME280;16357;52.188;7.838;2023-06-10T04:02:56;100918.72;;;19.40;46.87
29371;BME280;16357;52.188;7.838;2023-06-10T04:05:24;100918.94;;;19.39;46.86
29371;BME280;16357;52.188;7.838;2023-06-10T04:07:50;100908.50;;;19.36;47.13
29371;BME280;16357;52.188;7.838;2023-06-10T04:10:17;100910.59;;;19.34;47.07
29371;BME280;16357;52.188;7.838;2023-06-10T04:12:44;100909.13;;;19.31;47.10
29371;BME280;16357;52.188;7.838;2023-06-10T04:15:10;100921.88;;;19.30;47.22
29371;BME280;16357;52.188;7.838;2023-06-10T04:17:37;100918.53;;;19.28;46.74
29371;BME280;16357;52.188;7.838;2023-06-10T04:20:05;100916.88;;;19.27;47.00
29371;BME280;16357;52.188;7.838;2023-06-10T04:22:33;100921.44;;;19.27;46.86
29371;BME280;16357;52.188;7.838;2023-06-10T04:25:00;100915.19;;;19.26;46.98
29371;BME280;16357;52.188;7.838;2023-06-10T04:27:27;100915.19;;;19.26;46.95
29371;BME280;16357;52.188;7.838;2023-06-10T04:29:53;100921.25;;;19.28;47.02
29371;BME280;16357;52.188;7.838;2023-06-10T04:32:19;100925.44;;;19.31;46.87
29371;BME280;16357;52.188;7.838;2023-06-10T04:34:46;100931.28;;;19.35;46.78
29371;BME280;16357;52.188;7.838;2023-06-10T04:37:12;100932.75;;;19.37;46.90
29371;BME280;16357;52.188;7.838;2023-06-10T04:39:39;100933.19;;;19.41;46.79
29371;BME280;16357;52.188;7.838;2023-06-10T04:42:06;100938.22;;;19.44;46.83
29371;BME280;16357;52.188;7.838;2023-06-10T04:44:32;100940.31;;;19.48;46.70
29371;BME280;16357;52.188;7.838;2023-06-10T04:46:58;100942.38;;;19.53;46.77
29371;BME280;16357;52.188;7.838;2023-06-10T04:49:25;100943.63;;;19.57;46.83
29371;BME280;16357;52.188;7.838;2023-06-10T04:51:52;100940.88;;;19.64;46.68
29371;BME280;16357;52.188;7.838;2023-06-10T04:54:18;100936.53;;;19.69;46.46
29371;BME280;16357;52.188;7.838;2023-06-10T04:56:44;100936.72;;;19.74;46.42
29371;BME280;16357;52.188;7.838;2023-06-10T04:59:11;100935.25;;;19.79;46.23
29371;BME280;16357;52.188;7.838;2023-06-10T05:01:38;100939.25;;;19.83;45.98
29371;BME280;16357;52.188;7.838;2023-06-10T05:04:04;100935.03;;;19.87;46.07
29371;BME280;16357;52.188;7.838;2023-06-10T05:06:31;100944.47;;;19.91;46.02
29371;BME280;16357;52.188;7.838;2023-06-10T05:08:57;100940.25;;;19.95;46.13
29371;BME280;16357;52.188;7.838;2023-06-10T05:11:24;100942.34;;;20.00;45.71
29371;BME280;16357;52.188;7.838;2023-06-10T05:13:50;100938.97;;;20.04;45.95
29371;BME280;16357;52.188;7.838;2023-06-10T05:16:16;100947.34;;;20.09;45.82
29371;BME280;16357;52.188;7.838;2023-06-10T05:18:43;100947.75;;;20.13;46.14
29371;BME280;16357;52.188;7.838;2023-06-10T05:21:10;100948.13;;;20.16;45.54
29371;BME280;16357;52.188;7.838;2023-06-10T05:23:36;100951.06;;;20.22;45.54
29371;BME280;16357;52.188;7.838;2023-06-10T05:26:02;100951.47;;;20.25;45.68
29371;BME280;16357;52.188;7.838;2023-06-10T05:28:29;100952.69;;;20.29;45.57
29371;BME280;16357;52.188;7.838;2023-06-10T05:30:55;100949.13;;;20.35;45.48
29371;BME280;16357;52.188;7.838;2023-06-10T05:33:22;100959.38;;;20.40;45.37
29371;BME280;16357;52.188;7.838;2023-06-10T05:35:48;100958.72;;;20.45;45.36
29371;BME280;16357;52.188;7.838;2023-06-10T05:38:15;100947.19;;;20.49;45.16
29371;BME280;16357;52.188;7.838;2023-06-10T05:40:41;100956.41;;;20.55;44.84
29371;BME280;16357;52.188;7.838;2023-06-10T05:43:08;100960.59;;;20.57;45.06
29371;BME280;16357;52.188;7.838;2023-06-10T05:45:35;100963.50;;;20.63;45.13
29371;BME280;16357;52.188;7.838;2023-06-10T05:48:02;100957.16;;;20.69;44.69
29371;BME280;16357;52.188;7.838;2023-06-10T05:50:29;100963.88;;;20.73;44.86
29371;BME280;16357;52.188;7.838;2023-06-10T05:52:55;100960.91;;;20.74;44.86
29371;BME280;16357;52.188;7.838;2023-06-10T05:55:22;100952.72;;;20.81;45.09
29371;BME280;16357;52.188;7.838;2023-06-10T05:57:58;100949.09;;;20.87;44.60
29371;BME280;16357;52.188;7.838;2023-06-10T06:00:24;100955.34;;;20.94;44.87
29371;BME280;16357;52.188;7.838;2023-06-10T06:02:51;100958.66;;;21.03;44.54
29371;BME280;16357;52.188;7.838;2023-06-10T06:05:21;100956.50;;;21.12;44.43
29371;BME280;16357;52.188;7.838;2023-06-10T06:07:49;100953.91;;;21.17;44.19
29371;BME280;16357;52.188;7.838;2023-06-10T06:10:17;100956.81;;;21.22;44.32
29371;BME280;16357;52.188;7.838;2023-06-10T06:12:44;100950.94;;;21.25;44.37
29371;BME280;16357;52.188;7.838;2023-06-10T06:15:11;100960.97;;;21.31;44.47
29371;BME280;16357;52.188;7.838;2023-06-10T06:17:39;100953.78;;;21.37;44.30
29371;BME280;16357;52.188;7.838;2023-06-10T06:20:06;100966.34;;;21.44;44.21
29371;BME280;16357;52.188;7.838;2023-06-10T06:22:33;100970.91;;;21.51;44.03
29371;BME280;16357;52.188;7.838;2023-06-10T06:24:59;100967.31;;;21.57;43.97
29371;BME280;16357;52.188;7.838;2023-06-10T06:27:26;100963.44;;;21.64;43.74
29371;BME280;16357;52.188;7.838;2023-06-10T06:29:52;100971.56;;;21.71;43.83
29371;BME280;16357;52.188;7.838;2023-06-10T06:32:19;100971.53;;;21.78;43.54
29371;BME280;16357;52.188;7.838;2023-06-10T06:34:46;100969.16;;;21.81;43.07
29371;BME280;16357;52.188;7.838;2023-06-10T06:37:13;100977.72;;;21.85;43.16
29371;BME280;16357;52.188;7.838;2023-06-10T06:39:39;100973.50;;;21.89;43.63
29371;BME280;16357;52.188;7.838;2023-06-10T06:42:06;100980.16;;;21.93;43.26
29371;BME280;16357;52.188;7.838;2023-06-10T06:44:33;100982.22;;;21.98;43.71
29371;BME280;16357;52.188;7.838;2023-06-10T06:46:59;100982.38;;;22.03;43.15
29371;BME280;16357;52.188;7.838;2023-06-10T06:49:26;100975.41;;;22.07;43.30
29371;BME280;16357;52.188;7.838;2023-06-10T06:51:52;100971.97;;;22.11;42.99
29371;BME280;16357;52.188;7.838;2023-06-10T06:54:19;100980.13;;;22.18;43.29
29371;BME280;16357;52.188;7.838;2023-06-10T06:56:45;100985.78;;;22.23;43.19
29371;BME280;16357;52.188;7.838;2023-06-10T06:59:11;100983.56;;;22.32;43.15
29371;BME280;16357;52.188;7.838;2023-06-10T07:01:40;100984.31;;;22.39;42.81
29371;BME280;16357;52.188;7.838;2023-06-10T07:04:06;100976.03;;;22.46;42.62
29371;BME280;16357;52.188;7.838;2023-06-10T07:06:33;100977.25;;;22.50;42.60
29371;BME280;16357;52.188;7.838;2023-06-10T07:09:04;100980.34;;;22.53;42.30
29371;BME280;16357;52.188;7.838;2023-06-10T07:11:31;100973.59;;;22.56;42.12
29371;BME280;16357;52.188;7.838;2023-06-10T07:13:58;100982.19;;;22.60;41.88
29371;BME280;16357;52.188;7.838;2023-06-10T07:16:24;100992.19;;;22.66;42.02
29371;BME280;16357;52.188;7.838;2023-06-10T07:18:52;100991.50;;;22.70;41.76
29371;BME280;16357;52.188;7.838;2023-06-10T07:21:19;100981.53;;;22.76;41.90
29371;BME280;16357;52.188;7.838;2023-06-10T07:23:45;100990.50;;;22.83;41.68
29371;BME280;16357;52.188;7.838;2023-06-10T07:26:12;100994.22;;;22.89;41.66
29371;BME280;16357;52.188;7.838;2023-06-10T07:28:40;100988.03;;;22.93;41.71
29371;BME280;16357;52.188;7.838;2023-06-10T07:31:07;100990.69;;;23.00;41.73
29371;BME280;16357;52.188;7.838;2023-06-10T07:33:34;100996.91;;;23.07;41.79
29371;BME280;16357;52.188;7.838;2023-06-10T07:36:01;100991.13;;;23.15;40.97
29371;BME280;16357;52.188;7.838;2023-06-10T07:38:27;100993.28;;;23.25;41.07
29371;BME280;16357;52.188;7.838;2023-06-10T07:40:54;100990.56;;;23.37;40.36
29371;BME280;16357;52.188;7.838;2023-06-10T07:43:20;100982.81;;;23.45;40.23
29371;BME280;16357;52.188;7.838;2023-06-10T07:45:46;100982.25;;;23.55;40.46
29371;BME280;16357;52.188;7.838;2023-06-10T07:48:13;100980.59;;;23.66;39.72
29371;BME280;16357;52.188;7.838;2023-06-10T07:50:40;100977.31;;;23.76;39.95
29371;BME280;16357;52.188;7.838;2023-06-10T07:53:06;100982.16;;;23.85;39.18
29371;BME280;16357;52.188;7.838;2023-06-10T07:55:33;100979.91;;;23.94;38.87
29371;BME280;16357;52.188;7.838;2023-06-10T07:57:59;100977.41;;;24.04;38.94
29371;BME280;16357;52.188;7.838;2023-06-10T08:00:26;100981.44;;;24.14;38.86
29371;BME280;16357;52.188;7.838;2023-06-10T08:02:52;100967.34;;;24.22;38.59
29371;BME280;16357;52.188;7.838;2023-06-10T08:05:19;100976.88;;;24.31;38.29
29371;BME280;16357;52.188;7.838;2023-06-10T08:07:46;100970.41;;;24.37;38.14
29371;BME280;16357;52.188;7.838;2023-06-10T08:10:13;100967.78;;;24.42;38.00
29371;BME280;16357;52.188;7.838;2023-06-10T08:12:39;100964.09;;;24.48;38.69
29371;BME280;16357;52.188;7.838;2023-06-10T08:15:06;100964.47;;;24.52;38.19
29371;BME280;16357;52.188;7.838;2023-06-10T08:17:35;100959.31;;;24.56;38.37
29371;BME280;16357;52.188;7.838;2023-06-10T08:20:01;100964.56;;;24.57;38.27
29371;BME280;16357;52.188;7.838;2023-06-10T08:22:28;100962.16;;;24.61;38.12
29371;BME280;16357;52.188;7.838;2023-06-10T08:24:55;100965.50;;;24.63;38.08
29371;BME280;16357;52.188;7.838;2023-06-10T08:27:22;100961.16;;;24.67;38.05
29371;BME280;16357;52.188;7.838;2023-06-10T08:29:48;100964.00;;;24.72;38.20
29371;BME280;16357;52.188;7.838;2023-06-10T08:32:15;100968.53;;;24.78;37.43
29371;BME280;16357;52.188;7.838;2023-06-10T08:34:41;100966.44;;;24.85;37.54
29371;BME280;16357;52.188;7.838;2023-06-10T08:37:08;100952.31;;;24.93;38.28
29371;BME280;16357;52.188;7.838;2023-06-10T08:39:34;100965.91;;;25.00;37.39
29371;BME280;16357;52.188;7.838;2023-06-10T08:42:11;100956.44;;;25.08;37.58
29371;BME280;16357;52.188;7.838;2023-06-10T08:44:42;100947.47;;;25.12;37.66
29371;BME280;16357;52.188;7.838;2023-06-10T08:47:15;100948.16;;;25.19;37.54
29371;BME280;16357;52.188;7.838;2023-06-10T08:49:44;100957.34;;;25.25;37.79
29371;BME280;16357;52.188;7.838;2023-06-10T08:52:16;100957.97;;;25.32;37.77
29371;BME280;16357;52.188;7.838;2023-06-10T08:54:51;100957.84;;;25.39;37.62
29371;BME280;16357;52.188;7.838;2023-06-10T08:57:19;100953.00;;;25.46;37.82
29371;BME280;16357;52.188;7.838;2023-06-10T08:59:49;100954.75;;;25.52;37.59
29371;BME280;16357;52.188;7.838;2023-06-10T09:02:15;100953.50;;;25.60;36.79
29371;BME280;16357;52.188;7.838;2023-06-10T09:04:43;100956.88;;;25.67;36.68
29371;BME280;16357;52.188;7.838;2023-06-10T09:07:10;100948.47;;;25.74;36.70
29371;BME280;16357;52.188;7.838;2023-06-10T09:09:37;100955.69;;;25.80;36.46
29371;BME280;16357;52.188;7.838;2023-06-10T09:12:04;100947.31;;;25.87;36.74
29371;BME280;16357;52.188;7.838;2023-06-10T09:14:30;100947.97;;;25.94;36.83
29371;BME280;16357;52.188;7.838;2023-06-10T09:16:57;100946.38;;;25.98;36.45
29371;BME280;16357;52.188;7.838;2023-06-10T09:19:25;100950.28;;;26.02;36.25
29371;BME280;16357;52.188;7.838;2023-06-10T09:21:53;100951.41;;;26.06;36.40
29371;BME280;16357;52.188;7.838;2023-06-10T09:24:23;100944.06;;;26.12;36.11
29371;BME280;16357;52.188;7.838;2023-06-10T09:26:50;100942.25;;;26.17;36.40
29371;BME280;16357;52.188;7.838;2023-06-10T09:29:17;100948.34;;;26.24;35.65
29371;BME280;16357;52.188;7.838;2023-06-10T09:31:44;100954.28;;;26.33;35.23
29371;BME280;16357;52.188;7.838;2023-06-10T09:34:13;100957.63;;;26.40;35.83
29371;BME280;16357;52.188;7.838;2023-06-10T09:36:40;100953.59;;;26.48;36.00
29371;BME280;16357;52.188;7.838;2023-06-10T09:39:42;100956.50;;;26.58;35.37
29371;BME280;16357;52.188;7.838;2023-06-10T09:43:08;100957.72;;;26.67;34.90
29371;BME280;16357;52.188;7.838;2023-06-10T09:46:00;100957.81;;;26.78;34.49
29371;BME280;16357;52.188;7.838;2023-06-10T09:48:57;100961.19;;;26.85;33.32
29371;BME280;16357;52.188;7.838;2023-06-10T09:51:36;100966.81;;;26.95;33.39
29371;BME280;16357;52.188;7.838;2023-06-10T09:54:03;100965.75;;;27.01;33.46
29371;BME280;16357;52.188;7.838;2023-06-10T09:56:35;100964.44;;;27.09;33.40
29371;BME280;16357;52.188;7.838;2023-06-10T09:59:02;100951.84;;;27.13;32.79
29371;BME280;16357;52.188;7.838;2023-06-10T10:01:30;100965.69;;;27.18;33.01
29371;BME280;16357;52.188;7.838;2023-06-10T10:03:57;100955.53;;;27.24;33.42
29371;BME280;16357;52.188;7.838;2023-06-10T10:06:24;100966.59;;;27.29;33.41
29371;BME280;16357;52.188;7.838;2023-06-10T10:08:51;100961.97;;;27.34;33.46
29371;BME280;16357;52.188;7.838;2023-06-10T10:11:20;100962.00;;;27.40;33.01
29371;BME280;16357;52.188;7.838;2023-06-10T10:13:50;100950.50;;;27.48;33.38
29371;BME280;16357;52.188;7.838;2023-06-10T10:16:19;100954.44;;;27.57;32.69
29371;BME280;16357;52.188;7.838;2023-06-10T10:19:01;100946.19;;;27.67;32.78
29371;BME280;16357;52.188;7.838;2023-06-10T10:21:36;100946.56;;;27.76;32.78
29371;BME280;16357;52.188;7.838;2023-06-10T10:24:18;100948.84;;;27.84;32.38
29371;BME280;16357;52.188;7.838;2023-06-10T10:26:49;100953.28;;;27.90;31.84
29371;BME280;16357;52.188;7.838;2023-06-10T10:29:20;100955.81;;;27.97;31.61
29371;BME280;16357;52.188;7.838;2023-06-10T10:31:51;100947.81;;;28.00;31.21
29371;BME280;16357;52.188;7.838;2023-06-10T10:34:26;100948.97;;;28.05;30.96
29371;BME280;16357;52.188;7.838;2023-06-10T10:36:55;100952.00;;;28.08;31.40
29371;BME280;16357;52.188;7.838;2023-06-10T10:39:22;100946.22;;;28.10;31.59
29371;BME280;16357;52.188;7.838;2023-06-10T10:41:49;100953.69;;;28.14;31.36
29371;BME280;16357;52.188;7.838;2023-06-10T10:44:16;100957.00;;;28.16;31.27
29371;BME280;16357;52.188;7.838;2023-06-10T10:46:45;100949.28;;;28.18;30.66
29371;BME280;16357;52.188;7.838;2023-06-10T10:49:15;100949.88;;;28.20;30.53
29371;BME280;16357;52.188;7.838;2023-06-10T10:51:57;100955.66;;;28.24;30.60
29371;BME280;16357;52.188;7.838;2023-06-10T10:54:43;100940.50;;;28.27;30.45
29371;BME280;16357;52.188;7.838;2023-06-10T10:57:17;100958.72;;;28.33;29.38
29371;BME280;16357;52.188;7.838;2023-06-10T10:59:57;100952.41;;;28.37;29.50
29371;BME280;16357;52.188;7.838;2023-06-10T11:02:44;100954.94;;;28.44;29.25
29371;BME280;16357;52.188;7.838;2023-06-10T11:05:16;100951.34;;;28.49;29.17
29371;BME280;16357;52.188;7.838;2023-06-10T11:07:53;100946.41;;;28.56;29.43
29371;BME280;16357;52.188;7.838;2023-06-10T11:10:52;100951.41;;;28.64;29.44
29371;BME280;16357;52.188;7.838;2023-06-10T11:13:21;100940.94;;;28.71;29.31
29371;BME280;16357;52.188;7.838;2023-06-10T11:15:49;100935.13;;;28.78;29.57
29371;BME280;16357;52.188;7.838;2023-06-10T11:18:26;100932.13;;;28.89;29.73
29371;BME280;16357;52.188;7.838;2023-06-10T11:21:01;100930.22;;;29.00;29.44
29371;BME280;16357;52.188;7.838;2023-06-10T11:31:20;100912.28;;;29.28;28.87
29371;BME280;16357;52.188;7.838;2023-06-10T11:33:48;100914.50;;;29.37;28.41
29371;BME280;16357;52.188;7.838;2023-06-10T11:36:18;100913.94;;;29.45;27.82
29371;BME280;16357;52.188;7.838;2023-06-10T11:38:45;100911.72;;;29.52;28.09
29371;BME280;16357;52.188;7.838;2023-06-10T11:41:11;100915.84;;;29.60;28.27
29371;BME280;16357;52.188;7.838;2023-06-10T11:43:45;100917.78;;;29.69;27.37
29371;BME280;16357;52.188;7.838;2023-06-10T11:46:13;100915.81;;;29.75;26.88
29371;BME280;16357;52.188;7.838;2023-06-10T11:48:54;100919.13;;;29.82;26.71
29371;BME280;16357;52.188;7.838;2023-06-10T11:51:22;100920.50;;;29.85;26.57
29371;BME280;16357;52.188;7.838;2023-06-10T11:53:49;100911.63;;;29.88;26.43
29371;BME280;16357;52.188;7.838;2023-06-10T11:56:26;100911.06;;;29.91;27.18
29371;BME280;16357;52.188;7.838;2023-06-10T11:58:55;100914.38;;;29.93;27.04
29371;BME280;16357;52.188;7.838;2023-06-10T12:01:22;100918.25;;;29.97;26.61
29371;BME280;16357;52.188;7.838;2023-06-10T12:04:14;100913.53;;;30.03;27.35
29371;BME280;16357;52.188;7.838;2023-06-10T12:06:52;100913.78;;;30.06;26.75
29371;BME280;16357;52.188;7.838;2023-06-10T12:09:26;100911.28;;;30.10;26.40
29371;BME280;16357;52.188;7.838;2023-06-10T12:14:55;100914.84;;;30.21;27.34
29371;BME280;16357;52.188;7.838;2023-06-10T12:20:01;100915.06;;;30.34;26.38
29371;BME280;16357;52.188;7.838;2023-06-10T12:25:04;100902.59;;;30.42;25.93
29371;BME280;16357;52.188;7.838;2023-06-10T12:27:33;100897.28;;;30.46;25.75
29371;BME280;16357;52.188;7.838;2023-06-10T12:30:03;100894.25;;;30.47;26.02
29371;BME280;16357;52.188;7.838;2023-06-10T12:32:43;100899.22;;;30.50;26.29
29371;BME280;16357;52.188;7.838;2023-06-10T12:35:12;100893.66;;;30.50;26.38
29371;BME280;16357;52.188;7.838;2023-06-10T12:37:40;100888.94;;;30.51;25.77
29371;BME280;16357;52.188;7.838;2023-06-10T12:40:09;100900.84;;;30.51;26.42
29371;BME280;16357;52.188;7.838;2023-06-10T12:42:36;100890.31;;;30.53;26.37
29371;BME280;16357;52.188;7.838;2023-06-10T12:45:04;100894.19;;;30.57;25.56
29371;BME280;16357;52.188;7.838;2023-06-10T12:47:49;100889.72;;;30.61;26.45
29371;BME280;16357;52.188;7.838;2023-06-10T12:50:16;100889.13;;;30.65;26.30
29371;BME280;16357;52.188;7.838;2023-06-10T12:52:42;100888.59;;;30.68;25.92
29371;BME280;16357;52.188;7.838;2023-06-10T12:55:09;100883.03;;;30.68;26.19
29371;BME280;16357;52.188;7.838;2023-06-10T12:57:36;100889.41;;;30.68;25.84
29371;BME280;16357;52.188;7.838;2023-06-10T13:00:03;100885.28;;;30.66;26.12
29371;BME280;16357;52.188;7.838;2023-06-10T13:02:31;100881.69;;;30.65;26.54
29371;BME280;16357;52.188;7.838;2023-06-10T13:04:57;100887.22;;;30.65;26.59
29371;BME280;16357;52.188;7.838;2023-06-10T13:07:25;100879.72;;;30.66;26.20
29371;BME280;16357;52.188;7.838;2023-06-10T13:09:52;100880.78;;;30.70;26.28
29371;BME280;16357;52.188;7.838;2023-06-10T13:12:19;100887.69;;;30.72;26.44
29371;BME280;16357;52.188;7.838;2023-06-10T13:14:59;100891.28;;;30.73;26.53
29371;BME280;16357;52.188;7.838;2023-06-10T13:17:26;100886.59;;;30.73;26.36